createdAt,value
2022-09-10T00:02:10.704Z,100093.13
2022-09-10T00:04:37.743Z,100095.81
2022-09-10T00:07:06.898Z,100095.38
2022-09-10T00:09:34.036Z,100094.66
2022-09-10T00:12:01.167Z,100092.22
2022-09-10T00:14:28.134Z,100087.34
2022-09-10T00:16:55.135Z,100090.78
2022-09-10T00:19:22.223Z,100092.22
2022-09-10T00:21:50.705Z,100090.03
2022-09-10T00:24:17.703Z,100095.44
2022-09-10T00:26:45.653Z,100090.16
2022-09-10T00:29:17.954Z,100094.38
2022-09-10T00:31:45.345Z,100099.44
2022-09-10T00:34:14.286Z,100090.97
2022-09-10T00:36:43.956Z,100087.41
2022-09-10T00:39:18.111Z,100087.28
2022-09-10T00:41:47.294Z,100085.59
2022-09-10T00:44:42.136Z,100086.25
2022-09-10T00:47:51.147Z,100081.19
2022-09-10T00:50:26.111Z,100080.72
2022-09-10T00:52:58.253Z,100086.50
2022-09-10T00:55:25.477Z,100078.25
2022-09-10T00:57:57.047Z,100082.19
2022-09-10T01:00:24.202Z,100081.00
2022-09-10T01:02:52.034Z,100079.00
2022-09-10T01:05:20.032Z,100076.00
2022-09-10T01:07:48.146Z,100083.44
2022-09-10T01:10:21.935Z,100083.72
2022-09-10T01:13:11.889Z,100084.97
2022-09-10T01:16:10.730Z,100084.63
2022-09-10T01:19:07.519Z,100087.88
2022-09-10T01:22:15.502Z,100085.63
2022-09-10T01:25:23.717Z,100087.78
2022-09-10T01:27:54.668Z,100095.56
2022-09-10T01:30:34.155Z,100090.13
2022-09-10T01:33:27.234Z,100096.13
2022-09-10T01:36:00.233Z,100095.13
2022-09-10T01:38:31.962Z,100098.63
2022-09-10T01:40:59.617Z,100101.72
2022-09-10T01:43:26.801Z,100098.28
2022-09-10T01:46:45.382Z,100101.06
2022-09-10T01:49:36.797Z,100094.28
2022-09-10T01:52:28.595Z,100087.22
2022-09-10T01:55:23.842Z,100098.88
2022-09-10T01:58:24.627Z,100091.44
2022-09-10T02:01:21.925Z,100105.69
2022-09-10T02:03:56.872Z,100097.00
2022-09-10T02:06:29.573Z,100086.91
2022-09-10T02:08:58.476Z,100086.03
2022-09-10T02:11:25.463Z,100087.75
2022-09-10T02:13:53.447Z,100087.91
2022-09-10T02:16:40.368Z,100095.00
2022-09-10T02:19:08.155Z,100092.81
2022-09-10T02:21:36.278Z,100087.56
2022-09-10T02:24:07.992Z,100084.25
2022-09-10T02:26:39.660Z,100088.75
2022-09-10T02:29:08.539Z,100089.47
2022-09-10T02:31:35.840Z,100083.06
2022-09-10T02:34:05.400Z,100088.31
2022-09-10T02:36:32.911Z,100079.53
2022-09-10T02:39:03.031Z,100074.44
2022-09-10T02:41:32.561Z,100081.91
2022-09-10T02:44:03.700Z,100078.72
2022-09-10T02:46:31.049Z,100074.47
2022-09-10T02:48:58.475Z,100074.41
2022-09-10T02:51:26.061Z,100077.66
2022-09-10T02:53:53.124Z,100068.50
2022-09-10T02:56:20.211Z,100069.22
2022-09-10T02:58:47.208Z,100070.41
2022-09-10T03:01:19.115Z,100068.63
2022-09-10T03:03:55.088Z,100068.78
2022-09-10T03:06:24.629Z,100067.00
2022-09-10T03:08:55.291Z,100068.72
2022-09-10T03:11:27.236Z,100071.97
2022-09-10T03:13:54.790Z,100065.50
2022-09-10T03:16:21.866Z,100069.75
2022-09-10T03:18:48.844Z,100063.34
2022-09-10T03:21:22.067Z,100065.44
2022-09-10T03:23:51.340Z,100071.50
2022-09-10T03:26:20.560Z,100073.75
2022-09-10T03:28:48.559Z,100061.06
2022-09-10T03:31:16.191Z,100067.16
2022-09-10T03:33:43.139Z,100075.41
2022-09-10T03:36:13.242Z,100069.53
2022-09-10T03:38:41.232Z,100071.38
2022-09-10T03:41:08.373Z,100071.19
2022-09-10T03:43:35.446Z,100073.00
2022-09-10T03:46:02.654Z,100068.13
2022-09-10T03:48:29.977Z,100073.00
2022-09-10T03:50:57.318Z,100072.56
2022-09-10T03:53:24.367Z,100078.63
2022-09-10T03:55:52.099Z,100082.41
2022-09-10T03:58:19.477Z,100076.72
2022-09-10T04:00:46.644Z,100073.31
2022-09-10T04:03:16.667Z,100072.53
2022-09-10T04:05:44.171Z,100072.72
2022-09-10T04:08:13.634Z,100075.72
2022-09-10T04:10:42.217Z,100073.28
2022-09-10T04:13:10.096Z,100084.88
2022-09-10T04:15:40.052Z,100093.19
2022-09-10T04:18:08.400Z,100089.66
2022-09-10T04:20:35.322Z,100087.13
2022-09-10T04:23:03.030Z,100088.91
2022-09-10T04:25:30.041Z,100097.25
2022-09-10T04:27:57.152Z,100091.00
2022-09-10T04:30:26.059Z,100099.41
2022-09-10T04:32:52.994Z,100097.94
2022-09-10T04:35:20.384Z,100097.19
2022-09-10T04:37:47.353Z,100101.50
2022-09-10T04:40:14.365Z,100105.22
2022-09-10T04:42:41.380Z,100104.47
2022-09-10T04:45:09.610Z,100101.03
2022-09-10T04:47:36.584Z,100101.34
2022-09-10T04:50:04.110Z,100103.84
2022-09-10T04:52:31.055Z,100109.38
2022-09-10T04:54:58.312Z,100099.03
2022-09-10T04:57:26.199Z,100103.97
2022-09-10T04:59:54.001Z,100110.72
2022-09-10T05:02:21.198Z,100108.66
2022-09-10T05:04:48.152Z,100103.78
2022-09-10T05:07:15.041Z,100100.22
2022-09-10T05:09:42.061Z,100102.66
2022-09-10T05:12:08.961Z,100108.09
2022-09-10T05:14:35.979Z,100101.84
2022-09-10T05:17:03.277Z,100111.38
2022-09-10T05:19:30.231Z,100107.66
2022-09-10T05:21:57.166Z,100102.66
2022-09-10T05:24:24.111Z,100105.03
2022-09-10T05:26:52.064Z,100108.25
2022-09-10T05:29:22.044Z,100106.66
2022-09-10T05:31:49.035Z,100108.28
2022-09-10T05:34:15.946Z,100105.81
2022-09-10T05:36:42.880Z,100108.06
2022-09-10T05:39:09.865Z,100102.31
2022-09-10T05:41:37.994Z,100106.06
2022-09-10T05:44:05.367Z,100096.28
2022-09-10T05:46:32.993Z,100106.88
2022-09-10T05:48:59.988Z,100110.22
2022-09-10T05:51:29.832Z,100109.59
2022-09-10T05:53:57.699Z,100115.59
2022-09-10T05:56:26.231Z,100109.34
2022-09-10T05:58:54.192Z,100110.78
2022-09-10T06:01:21.261Z,100117.22
2022-09-10T06:03:48.690Z,100117.47
2022-09-10T06:06:15.820Z,100123.91
2022-09-10T06:08:43.234Z,100125.38
2022-09-10T06:11:11.840Z,100125.56
2022-09-10T06:13:42.146Z,100126.72
2022-09-10T06:16:09.486Z,100123.97
2022-09-10T06:18:37.054Z,100127.72
2022-09-10T06:21:15.674Z,100143.63
2022-09-10T06:23:44.165Z,100141.72
2022-09-10T06:26:18.476Z,100141.97
2022-09-10T06:28:46.523Z,100149.97
2022-09-10T06:31:20.083Z,100157.00
2022-09-10T06:33:49.020Z,100152.38
2022-09-10T06:36:16.241Z,100150.59
2022-09-10T06:38:56.613Z,100152.84
2022-09-10T06:41:24.518Z,100150.22
2022-09-10T06:43:51.458Z,100151.50
2022-09-10T06:46:54.930Z,100158.38
2022-09-10T06:49:07.179Z,100152.38
2022-09-10T06:51:34.126Z,100158.88
2022-09-10T06:54:02.900Z,100152.00
2022-09-10T06:56:30.339Z,100167.69
2022-09-10T06:59:01.948Z,100169.13
2022-09-10T07:01:29.839Z,100178.38
2022-09-10T07:03:59.522Z,100173.19
2022-09-10T07:06:30.363Z,100174.22
2022-09-10T07:08:58.335Z,100168.81
2022-09-10T07:11:28.645Z,100175.59
2022-09-10T07:13:55.655Z,100180.47
2022-09-10T07:16:26.136Z,100171.06
2022-09-10T07:18:56.839Z,100167.53
2022-09-10T07:21:27.334Z,100170.94
2022-09-10T07:24:01.103Z,100180.19
2022-09-10T07:26:28.871Z,100174.19
2022-09-10T07:28:57.053Z,100174.94
2022-09-10T07:31:29.829Z,100185.28
2022-09-10T07:33:58.108Z,100180.16
2022-09-10T07:36:25.710Z,100175.81
2022-09-10T07:38:54.828Z,100183.19
2022-09-10T07:41:21.800Z,100176.28
2022-09-10T07:43:52.853Z,100185.97
2022-09-10T07:46:22.062Z,100176.00
2022-09-10T07:48:53.483Z,100186.31
2022-09-10T07:51:20.506Z,100197.16
2022-09-10T07:53:50.830Z,100185.94
2022-09-10T07:56:17.852Z,100201.50
2022-09-10T07:58:44.845Z,100189.47
2022-09-10T08:01:12.605Z,100189.94
2022-09-10T08:03:40.766Z,100179.28
2022-09-10T08:06:09.325Z,100190.34
2022-09-10T08:08:38.987Z,100184.25
2022-09-10T08:11:16.630Z,100186.78
2022-09-10T08:13:50.262Z,100194.22
2022-09-10T08:16:20.797Z,100195.47
2022-09-10T08:18:48.649Z,100197.41
2022-09-10T08:21:17.552Z,100194.78
2022-09-10T08:23:50.788Z,100199.03
2022-09-10T08:26:18.515Z,100194.41
2022-09-10T08:28:45.569Z,100191.69
2022-09-10T08:31:14.524Z,100203.03
2022-09-10T08:33:41.593Z,100205.38
2022-09-10T08:36:12.119Z,100199.91
2022-09-10T08:38:41.001Z,100199.47
2022-09-10T08:41:21.885Z,100198.44
2022-09-10T08:44:03.590Z,100197.78
2022-09-10T08:46:37.297Z,100204.91
2022-09-10T08:49:41.745Z,100191.03
2022-09-10T08:52:38.359Z,100209.06
2022-09-10T08:55:17.504Z,100207.28
2022-09-10T08:57:53.720Z,100202.28
2022-09-10T09:00:25.309Z,100197.97
2022-09-10T09:03:02.902Z,100207.84
2022-09-10T09:05:55.575Z,100209.81
2022-09-10T09:08:51.060Z,100206.81
2022-09-10T09:11:51.398Z,100199.16
2022-09-10T09:14:50.235Z,100199.09
2022-09-10T09:17:58.690Z,100187.28
2022-09-10T09:20:49.188Z,100188.84
2022-09-10T09:23:48.062Z,100177.09
2022-09-10T09:26:35.703Z,100175.44
2022-09-10T09:29:19.770Z,100177.88
2022-09-10T09:31:53.197Z,100181.56
2022-09-10T09:34:28.624Z,100183.78
2022-09-10T09:36:57.723Z,100190.69
2022-09-10T09:39:43.458Z,100189.91
2022-09-10T09:43:05.359Z,100183.16
2022-09-10T09:45:47.703Z,100182.38
2022-09-10T09:48:18.499Z,100191.88
2022-09-10T09:50:53.430Z,100186.41
2022-09-10T09:53:27.271Z,100180.72
2022-09-10T09:56:35.910Z,100183.78
2022-09-10T09:59:24.455Z,100192.53
2022-09-10T10:01:51.837Z,100190.06
2022-09-10T10:04:30.907Z,100195.53
2022-09-10T10:07:00.876Z,100204.47
2022-09-10T10:09:45.017Z,100218.41
2022-09-10T10:12:31.753Z,100211.44
2022-09-10T10:15:00.242Z,100217.63
2022-09-10T10:17:40.834Z,100199.81
2022-09-10T10:20:13.707Z,100194.53
2022-09-10T10:22:43.326Z,100190.69
2022-09-10T10:25:41.192Z,100188.44
2022-09-10T10:28:27.514Z,100180.22
2022-09-10T10:30:59.305Z,100171.50
2022-09-10T10:33:30.836Z,100157.44
2022-09-10T10:36:38.288Z,100164.25
2022-09-10T10:39:21.794Z,100161.88
2022-09-10T10:42:05.022Z,100165.75
2022-09-10T10:44:44.966Z,100171.00
2022-09-10T10:47:58.009Z,100171.81
2022-09-10T10:50:39.863Z,100155.16
2022-09-10T10:53:39.597Z,100161.44
2022-09-10T10:56:26.042Z,100155.53
2022-09-10T10:59:09.522Z,100154.56
2022-09-10T11:01:44.212Z,100152.16
2022-09-10T11:04:47.487Z,100141.06
2022-09-10T11:07:39.417Z,100137.97
2022-09-10T11:10:43.350Z,100142.88
2022-09-10T11:13:41.028Z,100144.81
2022-09-10T11:16:24.012Z,100147.59
2022-09-10T11:18:54.481Z,100144.41
2022-09-10T11:21:31.975Z,100154.09
2022-09-10T11:24:06.382Z,100150.81
2022-09-10T11:27:02.959Z,100156.59
2022-09-10T11:29:49.946Z,100153.16
2022-09-10T11:33:00.404Z,100158.84
2022-09-10T11:35:44.084Z,100145.81
2022-09-10T11:38:51.471Z,100148.78
2022-09-10T11:41:29.214Z,100142.06
2022-09-10T11:44:53.731Z,100146.09
2022-09-10T11:47:37.095Z,100147.56
2022-09-10T11:50:13.651Z,100144.00
2022-09-10T11:52:40.547Z,100140.94
2022-09-10T11:55:14.619Z,100147.50
2022-09-10T11:57:59.872Z,100153.94
2022-09-10T12:00:30.079Z,100135.22
2022-09-10T12:03:51.461Z,100145.34
2022-09-10T12:06:39.507Z,100150.41
2022-09-10T12:09:25.907Z,100147.56
2022-09-10T12:12:21.423Z,100147.16
2022-09-10T12:14:48.408Z,100153.03
2022-09-10T12:17:30.926Z,100159.81
2022-09-10T12:20:01.163Z,100172.63
2022-09-10T12:22:39.013Z,100191.09
2022-09-10T12:25:24.097Z,100190.47
2022-09-10T12:27:59.027Z,100186.84
2022-09-10T12:30:33.252Z,100174.84
2022-09-10T12:33:27.807Z,100164.28
2022-09-10T12:35:54.698Z,100160.03
2022-09-10T12:38:49.872Z,100165.31
2022-09-10T12:41:27.142Z,100150.09
2022-09-10T12:43:57.471Z,100160.09
2022-09-10T12:46:25.933Z,100153.97
2022-09-10T12:49:06.694Z,100147.03
2022-09-10T12:51:57.496Z,100158.06
2022-09-10T12:54:47.028Z,100165.47
2022-09-10T12:57:50.781Z,100190.25
2022-09-10T13:00:24.468Z,100205.69
2022-09-10T13:02:58.204Z,100231.50
2022-09-10T13:05:56.747Z,100233.75
2022-09-10T13:08:33.196Z,100205.88
2022-09-10T13:11:01.216Z,100200.47
2022-09-10T13:14:02.486Z,100198.47
2022-09-10T13:16:29.700Z,100196.47
2022-09-10T13:19:14.512Z,100198.16
2022-09-10T13:21:41.383Z,100188.66
2022-09-10T13:24:34.621Z,100188.00
2022-09-10T13:27:34.069Z,100180.50
2022-09-10T13:30:24.278Z,100181.47
2022-09-10T13:33:00.880Z,100188.03
2022-09-10T13:35:55.785Z,100182.56
2022-09-10T13:38:49.191Z,100183.16
2022-09-10T13:41:56.127Z,100178.69
2022-09-10T13:44:51.986Z,100175.63
2022-09-10T13:47:33.784Z,100180.75
2022-09-10T13:50:15.915Z,100173.81
2022-09-10T13:52:47.106Z,100183.78
2022-09-10T13:55:22.468Z,100176.47
2022-09-10T13:57:52.246Z,100182.19
2022-09-10T14:00:24.075Z,100166.53
2022-09-10T14:02:57.161Z,100152.94
2022-09-10T14:05:34.070Z,100162.91
2022-09-10T14:08:13.023Z,100160.84
2022-09-10T14:11:05.306Z,100157.44
2022-09-10T14:13:44.689Z,100147.88
2022-09-10T14:16:18.536Z,100152.66
2022-09-10T14:18:55.412Z,100150.72
2022-09-10T14:21:28.544Z,100145.50
2022-09-10T14:23:59.700Z,100140.66
2022-09-10T14:26:33.705Z,100138.34
2022-09-10T14:29:24.985Z,100134.25
2022-09-10T14:31:52.051Z,100163.28
2022-09-10T14:34:36.138Z,100165.28
2022-09-10T14:37:32.304Z,100175.09
2022-09-10T14:40:20.030Z,100165.75
2022-09-10T14:42:49.371Z,100181.75
2022-09-10T14:45:38.151Z,100166.13
2022-09-10T14:48:06.479Z,100169.38
2022-09-10T14:50:34.847Z,100166.09
2022-09-10T14:53:01.803Z,100174.44
2022-09-10T14:55:32.319Z,100164.06
2022-09-10T14:57:59.524Z,100169.56
2022-09-10T15:00:34.719Z,100165.72
2022-09-10T15:03:02.639Z,100162.47
2022-09-10T15:05:29.847Z,100162.66
2022-09-10T15:07:56.698Z,100160.44
2022-09-10T15:10:23.823Z,100168.34
2022-09-10T15:12:53.118Z,100162.44
2022-09-10T15:15:20.065Z,100163.03
2022-09-10T15:17:47.207Z,100161.13
2022-09-10T15:20:16.930Z,100151.84
2022-09-10T15:22:44.841Z,100150.44
2022-09-10T15:25:33.839Z,100149.97
2022-09-10T15:28:02.189Z,100149.00
2022-09-10T15:30:29.496Z,100156.31
2022-09-10T15:32:56.520Z,100152.88
2022-09-10T15:35:25.118Z,100162.16
2022-09-10T15:37:52.112Z,100145.16
2022-09-10T15:40:19.047Z,100156.16
2022-09-10T15:42:46.087Z,100164.69
2022-09-10T15:45:12.963Z,100159.03
2022-09-10T15:47:40.354Z,100161.44
2022-09-10T15:50:12.631Z,100159.03
2022-09-10T15:52:39.547Z,100155.97
2022-09-10T15:55:07.171Z,100146.88
2022-09-10T15:57:35.889Z,100161.28
2022-09-10T16:00:06.651Z,100173.44
2022-09-10T16:02:34.403Z,100166.13
2022-09-10T16:05:01.292Z,100165.91
2022-09-10T16:07:29.511Z,100158.41
2022-09-10T16:09:58.803Z,100163.50
2022-09-10T16:12:27.304Z,100157.63
2022-09-10T16:14:54.647Z,100151.50
2022-09-10T16:17:21.595Z,100148.69
2022-09-10T16:19:49.611Z,100160.03
2022-09-10T16:22:20.408Z,100160.84
2022-09-10T16:24:47.723Z,100167.94
2022-09-10T16:27:17.348Z,100166.13
2022-09-10T16:29:44.307Z,100164.09
2022-09-10T16:32:11.362Z,100173.81
2022-09-10T16:34:38.839Z,100168.75
2022-09-10T16:37:06.985Z,100167.94
2022-09-10T16:39:33.975Z,100178.69
2022-09-10T16:42:01.022Z,100179.13
2022-09-10T16:44:28.739Z,100179.72
2022-09-10T16:46:57.721Z,100179.53
2022-09-10T16:49:24.864Z,100178.47
2022-09-10T16:51:51.783Z,100182.75
2022-09-10T16:54:20.824Z,100188.00
2022-09-10T16:56:48.847Z,100180.91
2022-09-10T16:59:22.068Z,100189.66
2022-09-10T17:01:51.394Z,100187.59
2022-09-10T17:04:28.327Z,100204.22
2022-09-10T17:06:57.715Z,100210.09
2022-09-10T17:09:25.274Z,100206.84
2022-09-10T17:11:52.489Z,100203.00
2022-09-10T17:14:19.425Z,100212.75
2022-09-10T17:16:48.010Z,100208.31
2022-09-10T17:19:19.940Z,100208.31
2022-09-10T17:21:51.171Z,100217.22
2022-09-10T17:24:21.092Z,100213.00
2022-09-10T17:26:48.171Z,100218.44
2022-09-10T17:29:19.773Z,100220.06
2022-09-10T17:31:47.635Z,100214.75
2022-09-10T17:34:16.423Z,100214.34
2022-09-10T17:36:46.243Z,100212.53
2022-09-10T17:39:14.884Z,100208.44
2022-09-10T17:41:43.018Z,100203.38
2022-09-10T17:44:11.436Z,100199.69
2022-09-10T17:46:39.307Z,100204.56
2022-09-10T17:49:06.500Z,100207.00
2022-09-10T17:51:35.223Z,100211.16
2022-09-10T17:54:05.186Z,100220.16
2022-09-10T17:56:32.210Z,100224.25
2022-09-10T17:59:04.207Z,100223.97
2022-09-10T18:01:38.626Z,100219.47
2022-09-10T18:04:07.022Z,100217.53
2022-09-10T18:06:37.163Z,100223.66
2022-09-10T18:09:05.549Z,100227.63
2022-09-10T18:11:36.770Z,100226.63
2022-09-10T18:14:04.694Z,100229.63
2022-09-10T18:16:33.843Z,100219.44
2022-09-10T18:19:12.835Z,100225.09
2022-09-10T18:21:41.433Z,100224.28
2022-09-10T18:24:14.518Z,100231.53
2022-09-10T18:26:44.364Z,100232.19
2022-09-10T18:29:21.951Z,100240.19
2022-09-10T18:31:56.259Z,100240.19
2022-09-10T18:34:27.706Z,100237.19
2022-09-10T18:37:00.679Z,100245.91
2022-09-10T18:39:31.292Z,100243.47
2022-09-10T18:42:01.140Z,100251.97
2022-09-10T18:44:36.996Z,100243.06
2022-09-10T18:47:17.769Z,100252.38
2022-09-10T18:49:50.399Z,100252.69
2022-09-10T18:52:17.566Z,100247.88
2022-09-10T18:54:46.569Z,100251.22
2022-09-10T18:57:14.036Z,100257.22
2022-09-10T18:59:41.035Z,100263.63
2022-09-10T19:02:08.051Z,100262.38
2022-09-10T19:04:54.428Z,100261.75
2022-09-10T19:07:23.396Z,100254.78
2022-09-10T19:09:50.285Z,100251.63
2022-09-10T19:12:19.225Z,100268.69
2022-09-10T19:14:46.261Z,100265.63
2022-09-10T19:17:13.316Z,100267.97
2022-09-10T19:19:40.216Z,100267.97
2022-09-10T19:22:07.307Z,100265.19
2022-09-10T19:24:54.166Z,100277.84
2022-09-10T19:27:22.199Z,100271.34
2022-09-10T19:29:49.885Z,100272.34
2022-09-10T19:32:17.407Z,100268.06
2022-09-10T19:34:44.696Z,100270.47
2022-09-10T19:37:11.714Z,100269.31
2022-09-10T19:39:38.805Z,100265.69
2022-09-10T19:42:06.816Z,100273.44
2022-09-10T19:44:33.978Z,100273.44
2022-09-10T19:47:01.155Z,100263.47
2022-09-10T19:49:28.092Z,100266.16
2022-09-10T19:51:55.092Z,100265.00
2022-09-10T19:54:22.793Z,100274.34
2022-09-10T19:56:49.831Z,100264.69
2022-09-10T19:59:17.039Z,100262.44
2022-09-10T20:01:46.060Z,100268.56
2022-09-10T20:04:14.366Z,100258.41
2022-09-10T20:06:46.006Z,100257.25
2022-09-10T20:09:13.531Z,100272.94
2022-09-10T20:11:41.059Z,100274.44
2022-09-10T20:14:13.946Z,100280.72
2022-09-10T20:16:44.069Z,100288.19
2022-09-10T20:19:18.034Z,100290.69
2022-09-10T20:21:46.472Z,100299.41
2022-09-10T20:24:14.586Z,100295.56
2022-09-10T20:26:43.678Z,100300.97
2022-09-10T20:29:14.167Z,100302.53
2022-09-10T20:31:43.253Z,100313.06
2022-09-10T20:34:17.191Z,100320.59
2022-09-10T20:36:44.350Z,100331.59
2022-09-10T20:39:17.851Z,100329.97
2022-09-10T20:41:45.788Z,100330.56
2022-09-10T20:44:15.838Z,100332.44
2022-09-10T20:46:44.145Z,100336.56
2022-09-10T20:49:13.571Z,100339.59
2022-09-10T20:51:41.129Z,100335.72
2022-09-10T20:54:13.530Z,100339.59
2022-09-10T20:56:42.146Z,100351.41
2022-09-10T20:59:11.605Z,100343.97
2022-09-10T21:01:39.237Z,100345.38
2022-09-10T21:04:07.507Z,100338.41
2022-09-10T21:06:35.215Z,100341.94
2022-09-10T21:09:02.826Z,100337.25
2022-09-10T21:11:35.171Z,100341.75
2022-09-10T21:14:05.849Z,100339.59
2022-09-10T21:16:35.229Z,100332.38
2022-09-10T21:19:05.765Z,100334.72
2022-09-10T21:21:34.678Z,100335.97
2022-09-10T21:24:05.846Z,100341.75
2022-09-10T21:26:35.870Z,100335.38
2022-09-10T21:29:07.209Z,100336.38
2022-09-10T21:31:35.577Z,100334.00
2022-09-10T21:34:03.716Z,100328.69
2022-09-10T21:36:32.700Z,100331.78
2022-09-10T21:39:03.010Z,100331.56
2022-09-10T21:41:39.886Z,100332.50
2022-09-10T21:44:24.994Z,100349.41
2022-09-10T21:46:52.902Z,100350.13
2022-09-10T21:49:20.445Z,100355.38
2022-09-10T21:51:47.586Z,100346.03
2022-09-10T21:54:18.959Z,100342.94
2022-09-10T21:56:46.897Z,100346.28
2022-09-10T21:59:14.572Z,100352.41
2022-09-10T22:01:44.126Z,100354.13
2022-09-10T22:04:12.619Z,100347.44
2022-09-10T22:06:40.847Z,100341.44
2022-09-10T22:09:13.921Z,100350.69
2022-09-10T22:11:45.855Z,100350.44
2022-09-10T22:14:24.143Z,100336.16
2022-09-10T22:16:52.316Z,100341.38
2022-09-10T22:19:23.586Z,100342.06
2022-09-10T22:21:53.894Z,100342.88
2022-09-10T22:24:20.949Z,100346.44
2022-09-10T22:26:48.327Z,100342.19
2022-09-10T22:29:18.509Z,100336.72
2022-09-10T22:31:46.540Z,100341.38
2022-09-10T22:34:16.379Z,100340.44
2022-09-10T22:36:45.248Z,100331.41
2022-09-10T22:39:14.571Z,100332.19
2022-09-10T22:41:43.003Z,100336.13
2022-09-10T22:44:10.519Z,100333.09
2022-09-10T22:46:38.443Z,100338.00
2022-09-10T22:49:06.228Z,100332.56
2022-09-10T22:51:38.083Z,100332.03
2022-09-10T22:54:05.973Z,100333.31
2022-09-10T22:56:35.745Z,100337.09
2022-09-10T22:59:04.499Z,100344.63
2022-09-10T23:01:36.523Z,100343.78
2022-09-10T23:04:06.203Z,100341.25
2022-09-10T23:06:36.458Z,100336.00
2022-09-10T23:09:09.269Z,100339.38
2022-09-10T23:11:37.661Z,100343.63
2022-09-10T23:14:13.108Z,100348.88
2022-09-10T23:16:48.320Z,100359.38
2022-09-10T23:19:22.667Z,100357.09
2022-09-10T23:21:53.181Z,100363.19
2022-09-10T23:24:26.762Z,100362.88
2022-09-10T23:26:54.166Z,100369.06
2022-09-10T23:29:22.972Z,100368.72
2022-09-10T23:31:52.871Z,100364.88
2022-09-10T23:34:20.928Z,100363.25
2022-09-10T23:36:49.128Z,100361.41
2022-09-10T23:39:24.589Z,100368.69
2022-09-10T23:41:56.891Z,100363.72
2022-09-10T23:44:24.237Z,100370.25
2022-09-10T23:46:51.455Z,100369.81
2022-09-10T23:49:18.571Z,100367.63
2022-09-10T23:51:45.685Z,100369.25
2022-09-10T23:54:12.818Z,100370.91
2022-09-10T23:56:40.136Z,100373.88
2022-09-10T23:59:07.691Z,100364.69
